sensor_id;sensor_type;location;lat;lon;timestamp;P1;durP1;ratioP1;P2;durP2;ratioP2
1701;SDS011;848;48.354;10.064;2023-07-30T00:00:48;2.97;;;2.47;;
1701;SDS011;848;48.354;10.064;2023-07-30T00:03:15;2.70;;;2.50;;
1701;SDS011;848;48.354;10.064;2023-07-30T00:05:42;2.45;;;2.25;;
1701;SDS011;848;48.354;10.064;2023-07-30T00:08:09;3.15;;;2.70;;
1701;SDS011;848;48.354;10.064;2023-07-30T00:10:37;5.25;;;2.65;;
1701;SDS011;848;48.354;10.064;2023-07-30T00:13:04;4.70;;;3.17;;
1701;SDS011;848;48.354;10.064;2023-07-30T00:15:32;5.20;;;2.70;;
1701;SDS011;848;48.354;10.064;2023-07-30T00:17:59;7.68;;;2.65;;
1701;SDS011;848;48.354;10.064;2023-07-30T00:20:25;3.22;;;2.63;;
1701;SDS011;848;48.354;10.064;2023-07-30T00:22:52;3.95;;;2.50;;
1701;SDS011;848;48.354;10.064;2023-07-30T00:25:19;3.55;;;2.80;;
1701;SDS011;848;48.354;10.064;2023-07-30T00:27:47;3.15;;;2.70;;
1701;SDS011;848;48.354;10.064;2023-07-30T00:30:14;3.72;;;2.88;;
1701;SDS011;848;48.354;10.064;2023-07-30T00:32:41;4.40;;;2.90;;
1701;SDS011;848;48.354;10.064;2023-07-30T00:35:08;3.53;;;2.53;;
1701;SDS011;848;48.354;10.064;2023-07-30T00:37:35;2.85;;;2.65;;
1701;SDS011;848;48.354;10.064;2023-07-30T00:40:02;2.67;;;2.40;;
1701;SDS011;848;48.354;10.064;2023-07-30T00:42:30;2.85;;;2.55;;
1701;SDS011;848;48.354;10.064;2023-07-30T00:44:59;5.43;;;2.80;;
1701;SDS011;848;48.354;10.064;2023-07-30T00:47:26;3.97;;;2.70;;
1701;SDS011;848;48.354;10.064;2023-07-30T00:49:53;3.15;;;2.55;;
1701;SDS011;848;48.354;10.064;2023-07-30T00:52:21;5.10;;;2.83;;
1701;SDS011;848;48.354;10.064;2023-07-30T00:54:49;2.65;;;2.45;;
1701;SDS011;848;48.354;10.064;2023-07-30T00:57:17;2.83;;;2.40;;
1701;SDS011;848;48.354;10.064;2023-07-30T00:59:45;2.95;;;2.58;;
1701;SDS011;848;48.354;10.064;2023-07-30T01:02:14;5.90;;;2.83;;
1701;SDS011;848;48.354;10.064;2023-07-30T01:04:41;5.10;;;3.10;;
1701;SDS011;848;48.354;10.064;2023-07-30T01:07:08;3.13;;;2.30;;
1701;SDS011;848;48.354;10.064;2023-07-30T01:09:35;3.38;;;2.50;;
1701;SDS011;848;48.354;10.064;2023-07-30T01:12:02;9.70;;;3.15;;
1701;SDS011;848;48.354;10.064;2023-07-30T01:14:30;2.97;;;2.25;;
1701;SDS011;848;48.354;10.064;2023-07-30T01:16:58;2.55;;;2.35;;
1701;SDS011;848;48.354;10.064;2023-07-30T01:19:27;3.03;;;2.75;;
1701;SDS011;848;48.354;10.064;2023-07-30T01:21:55;3.45;;;2.88;;
1701;SDS011;848;48.354;10.064;2023-07-30T01:24:22;3.30;;;2.78;;
1701;SDS011;848;48.354;10.064;2023-07-30T01:26:50;2.97;;;2.53;;
1701;SDS011;848;48.354;10.064;2023-07-30T01:29:21;4.30;;;3.22;;
1701;SDS011;848;48.354;10.064;2023-07-30T01:31:52;3.08;;;2.63;;
1701;SDS011;848;48.354;10.064;2023-07-30T01:34:22;6.47;;;2.75;;
1701;SDS011;848;48.354;10.064;2023-07-30T01:36:51;3.72;;;3.33;;
1701;SDS011;848;48.354;10.064;2023-07-30T01:39:20;2.70;;;2.22;;
1701;SDS011;848;48.354;10.064;2023-07-30T01:41:48;3.03;;;2.30;;
1701;SDS011;848;48.354;10.064;2023-07-30T01:44:15;5.15;;;2.60;;
1701;SDS011;848;48.354;10.064;2023-07-30T01:46:42;6.00;;;2.80;;
1701;SDS011;848;48.354;10.064;2023-07-30T01:49:09;3.97;;;3.40;;
1701;SDS011;848;48.354;10.064;2023-07-30T01:51:35;3.80;;;3.10;;
1701;SDS011;848;48.354;10.064;2023-07-30T01:54:02;3.30;;;2.78;;
1701;SDS011;848;48.354;10.064;2023-07-30T01:56:31;4.38;;;3.00;;
1701;SDS011;848;48.354;10.064;2023-07-30T01:58:57;3.40;;;2.95;;
1701;SDS011;848;48.354;10.064;2023-07-30T02:01:24;4.30;;;3.17;;
1701;SDS011;848;48.354;10.064;2023-07-30T02:03:51;3.22;;;2.67;;
1701;SDS011;848;48.354;10.064;2023-07-30T02:06:18;5.00;;;3.10;;
1701;SDS011;848;48.354;10.064;2023-07-30T02:08:45;4.68;;;3.65;;
1701;SDS011;848;48.354;10.064;2023-07-30T02:11:12;6.00;;;3.13;;
1701;SDS011;848;48.354;10.064;2023-07-30T02:13:40;7.32;;;5.07;;
1701;SDS011;848;48.354;10.064;2023-07-30T02:16:07;4.50;;;2.55;;
1701;SDS011;848;48.354;10.064;2023-07-30T02:18:34;3.72;;;3.28;;
1701;SDS011;848;48.354;10.064;2023-07-30T02:21:01;4.07;;;3.35;;
1701;SDS011;848;48.354;10.064;2023-07-30T02:23:28;3.65;;;2.80;;
1701;SDS011;848;48.354;10.064;2023-07-30T02:25:55;3.25;;;2.92;;
1701;SDS011;848;48.354;10.064;2023-07-30T02:28:22;5.65;;;3.33;;
1701;SDS011;848;48.354;10.064;2023-07-30T02:30:50;5.53;;;2.58;;
1701;SDS011;848;48.354;10.064;2023-07-30T02:33:17;4.25;;;3.20;;
1701;SDS011;848;48.354;10.064;2023-07-30T02:35:44;5.30;;;2.50;;
1701;SDS011;848;48.354;10.064;2023-07-30T02:38:10;4.10;;;2.83;;
1701;SDS011;848;48.354;10.064;2023-07-30T02:40:37;3.25;;;2.95;;
1701;SDS011;848;48.354;10.064;2023-07-30T02:43:04;3.20;;;2.53;;
1701;SDS011;848;48.354;10.064;2023-07-30T02:45:31;3.50;;;2.83;;
1701;SDS011;848;48.354;10.064;2023-07-30T02:47:59;3.88;;;2.78;;
1701;SDS011;848;48.354;10.064;2023-07-30T02:50:26;6.35;;;2.60;;
1701;SDS011;848;48.354;10.064;2023-07-30T02:52:53;4.20;;;2.80;;
1701;SDS011;848;48.354;10.064;2023-07-30T02:55:20;3.17;;;2.88;;
1701;SDS011;848;48.354;10.064;2023-07-30T02:57:47;3.47;;;2.80;;
1701;SDS011;848;48.354;10.064;2023-07-30T03:00:13;3.25;;;2.95;;
1701;SDS011;848;48.354;10.064;2023-07-30T03:02:40;3.63;;;3.03;;
1701;SDS011;848;48.354;10.064;2023-07-30T03:05:09;3.78;;;2.63;;
1701;SDS011;848;48.354;10.064;2023-07-30T03:07:36;4.03;;;2.90;;
1701;SDS011;848;48.354;10.064;2023-07-30T03:10:03;4.45;;;3.08;;
1701;SDS011;848;48.354;10.064;2023-07-30T03:12:30;3.30;;;2.67;;
1701;SDS011;848;48.354;10.064;2023-07-30T03:14:57;4.07;;;3.08;;
1701;SDS011;848;48.354;10.064;2023-07-30T03:17:23;4.00;;;2.90;;
1701;SDS011;848;48.354;10.064;2023-07-30T03:19:51;4.38;;;3.53;;
1701;SDS011;848;48.354;10.064;2023-07-30T03:22:19;5.05;;;3.95;;
1701;SDS011;848;48.354;10.064;2023-07-30T03:24:46;6.53;;;3.65;;
1701;SDS011;848;48.354;10.064;2023-07-30T03:27:13;4.80;;;3.60;;
1701;SDS011;848;48.354;10.064;2023-07-30T03:29:40;4.07;;;3.67;;
1701;SDS011;848;48.354;10.064;2023-07-30T03:32:07;4.05;;;3.40;;
1701;SDS011;848;48.354;10.064;2023-07-30T03:34:34;4.00;;;3.30;;
1701;SDS011;848;48.354;10.064;2023-07-30T03:37:01;4.15;;;3.08;;
1701;SDS011;848;48.354;10.064;2023-07-30T03:39:29;3.95;;;3.22;;
1701;SDS011;848;48.354;10.064;2023-07-30T03:41:56;6.07;;;3.50;;
1701;SDS011;848;48.354;10.064;2023-07-30T03:44:23;5.57;;;3.58;;
1701;SDS011;848;48.354;10.064;2023-07-30T03:46:50;5.03;;;3.30;;
1701;SDS011;848;48.354;10.064;2023-07-30T03:49:17;10.20;;;3.63;;
1701;SDS011;848;48.354;10.064;2023-07-30T03:51:44;6.05;;;3.80;;
1701;SDS011;848;48.354;10.064;2023-07-30T03:54:11;4.90;;;2.80;;
1701;SDS011;848;48.354;10.064;2023-07-30T03:56:39;5.15;;;3.38;;
1701;SDS011;848;48.354;10.064;2023-07-30T03:59:06;5.30;;;2.92;;
1701;SDS011;848;48.354;10.064;2023-07-30T04:01:33;5.68;;;3.38;;
1701;SDS011;848;48.354;10.064;2023-07-30T04:04:00;4.07;;;3.67;;
1701;SDS011;848;48.354;10.064;2023-07-30T04:06:26;4.20;;;3.35;;
1701;SDS011;848;48.354;10.064;2023-07-30T04:08:53;5.70;;;3.20;;
1701;SDS011;848;48.354;10.064;2023-07-30T04:11:20;3.75;;;3.28;;
1701;SDS011;848;48.354;10.064;2023-07-30T04:13:48;5.15;;;3.20;;
1701;SDS011;848;48.354;10.064;2023-07-30T04:16:15;7.70;;;3.55;;
1701;SDS011;848;48.354;10.064;2023-07-30T04:18:42;4.25;;;3.63;;
1701;SDS011;848;48.354;10.064;2023-07-30T04:21:09;5.40;;;3.58;;
1701;SDS011;848;48.354;10.064;2023-07-30T04:23:36;6.18;;;2.88;;
1701;SDS011;848;48.354;10.064;2023-07-30T04:26:03;3.70;;;3.35;;
1701;SDS011;848;48.354;10.064;2023-07-30T04:28:30;4.82;;;3.33;;
1701;SDS011;848;48.354;10.064;2023-07-30T04:30:58;6.90;;;3.50;;
1701;SDS011;848;48.354;10.064;2023-07-30T04:33:25;3.90;;;2.80;;
1701;SDS011;848;48.354;10.064;2023-07-30T04:35:52;5.22;;;2.80;;
1701;SDS011;848;48.354;10.064;2023-07-30T04:38:19;4.45;;;4.03;;
1701;SDS011;848;48.354;10.064;2023-07-30T04:40:46;5.60;;;3.40;;
1701;SDS011;848;48.354;10.064;2023-07-30T04:43:13;6.75;;;3.70;;
1701;SDS011;848;48.354;10.064;2023-07-30T04:45:40;4.85;;;4.00;;
1701;SDS011;848;48.354;10.064;2023-07-30T04:48:09;3.25;;;2.95;;
1701;SDS011;848;48.354;10.064;2023-07-30T04:50:37;3.90;;;3.40;;
1701;SDS011;848;48.354;10.064;2023-07-30T04:53:07;4.15;;;3.72;;
1701;SDS011;848;48.354;10.064;2023-07-30T04:55:33;4.55;;;3.35;;
1701;SDS011;848;48.354;10.064;2023-07-30T04:58:00;5.63;;;3.10;;
1701;SDS011;848;48.354;10.064;2023-07-30T05:00:28;4.13;;;3.50;;
1701;SDS011;848;48.354;10.064;2023-07-30T05:02:55;4.05;;;3.10;;
1701;SDS011;848;48.354;10.064;2023-07-30T05:05:23;5.13;;;3.35;;
1701;SDS011;848;48.354;10.064;2023-07-30T05:07:50;5.45;;;3.60;;
1701;SDS011;848;48.354;10.064;2023-07-30T05:10:17;3.80;;;3.40;;
1701;SDS011;848;48.354;10.064;2023-07-30T05:12:44;5.80;;;3.80;;
1701;SDS011;848;48.354;10.064;2023-07-30T05:15:11;3.42;;;3.13;;
1701;SDS011;848;48.354;10.064;2023-07-30T05:17:38;4.22;;;3.83;;
1701;SDS011;848;48.354;10.064;2023-07-30T05:20:05;4.35;;;3.25;;
1701;SDS011;848;48.354;10.064;2023-07-30T05:22:35;4.20;;;3.10;;
1701;SDS011;848;48.354;10.064;2023-07-30T05:25:01;4.85;;;3.80;;
1701;SDS011;848;48.354;10.064;2023-07-30T05:27:28;3.75;;;3.38;;
1701;SDS011;848;48.354;10.064;2023-07-30T05:29:56;3.53;;;3.22;;
1701;SDS011;848;48.354;10.064;2023-07-30T05:32:25;3.30;;;2.95;;
1701;SDS011;848;48.354;10.064;2023-07-30T05:34:52;8.05;;;3.80;;
1701;SDS011;848;48.354;10.064;2023-07-30T05:37:19;5.25;;;3.47;;
1701;SDS011;848;48.354;10.064;2023-07-30T05:39:47;4.68;;;3.55;;
1701;SDS011;848;48.354;10.064;2023-07-30T05:42:14;3.85;;;3.15;;
1701;SDS011;848;48.354;10.064;2023-07-30T05:44:41;4.65;;;3.50;;
1701;SDS011;848;48.354;10.064;2023-07-30T05:47:08;4.30;;;3.10;;
1701;SDS011;848;48.354;10.064;2023-07-30T05:49:34;3.70;;;3.30;;
1701;SDS011;848;48.354;10.064;2023-07-30T05:52:01;5.90;;;3.50;;
1701;SDS011;848;48.354;10.064;2023-07-30T05:54:29;3.22;;;2.65;;
1701;SDS011;848;48.354;10.064;2023-07-30T05:56:57;3.92;;;3.08;;
1701;SDS011;848;48.354;10.064;2023-07-30T05:59:24;5.88;;;3.80;;
1701;SDS011;848;48.354;10.064;2023-07-30T06:01:51;3.60;;;2.97;;
1701;SDS011;848;48.354;10.064;2023-07-30T06:04:17;3.88;;;3.00;;
1701;SDS011;848;48.354;10.064;2023-07-30T06:06:44;4.20;;;3.22;;
1701;SDS011;848;48.354;10.064;2023-07-30T06:09:11;3.80;;;3.35;;
1701;SDS011;848;48.354;10.064;2023-07-30T06:11:38;7.22;;;3.90;;
1701;SDS011;848;48.354;10.064;2023-07-30T06:14:06;3.75;;;3.30;;
1701;SDS011;848;48.354;10.064;2023-07-30T06:16:33;6.22;;;3.35;;
1701;SDS011;848;48.354;10.064;2023-07-30T06:19:00;3.50;;;3.20;;
1701;SDS011;848;48.354;10.064;2023-07-30T06:21:27;4.03;;;3.60;;
1701;SDS011;848;48.354;10.064;2023-07-30T06:23:54;3.42;;;2.88;;
1701;SDS011;848;48.354;10.064;2023-07-30T06:26:20;4.35;;;3.40;;
1701;SDS011;848;48.354;10.064;2023-07-30T06:28:47;6.45;;;3.42;;
1701;SDS011;848;48.354;10.064;2023-07-30T06:31:16;4.68;;;3.20;;
1701;SDS011;848;48.354;10.064;2023-07-30T06:33:42;3.13;;;2.83;;
1701;SDS011;848;48.354;10.064;2023-07-30T06:36:09;4.05;;;2.72;;
1701;SDS011;848;48.354;10.064;2023-07-30T06:38:36;3.13;;;2.78;;
1701;SDS011;848;48.354;10.064;2023-07-30T06:41:03;8.13;;;3.25;;
1701;SDS011;848;48.354;10.064;2023-07-30T06:43:30;3.25;;;2.95;;
1701;SDS011;848;48.354;10.064;2023-07-30T06:45:57;3.30;;;3.00;;
1701;SDS011;848;48.354;10.064;2023-07-30T06:48:25;3.20;;;2.90;;
1701;SDS011;848;48.354;10.064;2023-07-30T06:50:52;3.15;;;2.85;;
1701;SDS011;848;48.354;10.064;2023-07-30T06:53:19;4.97;;;3.45;;
1701;SDS011;848;48.354;10.064;2023-07-30T06:55:46;3.50;;;2.83;;
1701;SDS011;848;48.354;10.064;2023-07-30T06:58:13;3.90;;;3.35;;
1701;SDS011;848;48.354;10.064;2023-07-30T07:00:40;3.00;;;2.65;;
1701;SDS011;848;48.354;10.064;2023-07-30T07:03:07;3.13;;;2.70;;
1701;SDS011;848;48.354;10.064;2023-07-30T07:05:35;3.28;;;2.42;;
1701;SDS011;848;48.354;10.064;2023-07-30T07:08:02;4.07;;;2.40;;
1701;SDS011;848;48.354;10.064;2023-07-30T07:10:29;3.58;;;2.35;;
1701;SDS011;848;48.354;10.064;2023-07-30T07:12:56;4.00;;;2.20;;
1701;SDS011;848;48.354;10.064;2023-07-30T07:15:23;3.05;;;2.75;;
1701;SDS011;848;48.354;10.064;2023-07-30T07:17:50;3.03;;;2.53;;
1701;SDS011;848;48.354;10.064;2023-07-30T07:20:17;3.17;;;2.87;;
1701;SDS011;848;48.354;10.064;2023-07-30T07:22:45;4.85;;;2.35;;
1701;SDS011;848;48.354;10.064;2023-07-30T07:25:12;3.50;;;2.53;;
1701;SDS011;848;48.354;10.064;2023-07-30T07:27:39;3.10;;;2.37;;
1701;SDS011;848;48.354;10.064;2023-07-30T07:30:06;2.40;;;2.20;;
1701;SDS011;848;48.354;10.064;2023-07-30T07:32:34;6.90;;;2.50;;
1701;SDS011;848;48.354;10.064;2023-07-30T07:35:04;2.07;;;1.73;;
1701;SDS011;848;48.354;10.064;2023-07-30T07:37:31;4.17;;;2.33;;
1701;SDS011;848;48.354;10.064;2023-07-30T07:40:00;2.83;;;2.30;;
1701;SDS011;848;48.354;10.064;2023-07-30T07:42:28;3.70;;;2.00;;
1701;SDS011;848;48.354;10.064;2023-07-30T07:44:55;2.40;;;2.20;;
1701;SDS011;848;48.354;10.064;2023-07-30T07:47:22;2.13;;;1.87;;
1701;SDS011;848;48.354;10.064;2023-07-30T07:49:49;2.07;;;1.60;;
1701;SDS011;848;48.354;10.064;2023-07-30T07:52:16;2.90;;;2.50;;
1701;SDS011;848;48.354;10.064;2023-07-30T07:54:43;3.90;;;2.07;;
1701;SDS011;848;48.354;10.064;2023-07-30T07:57:11;2.43;;;2.17;;
1701;SDS011;848;48.354;10.064;2023-07-30T07:59:38;2.47;;;2.27;;
1701;SDS011;848;48.354;10.064;2023-07-30T08:02:06;2.07;;;1.63;;
1701;SDS011;848;48.354;10.064;2023-07-30T08:04:33;2.30;;;2.07;;
1701;SDS011;848;48.354;10.064;2023-07-30T08:07:00;3.70;;;2.00;;
1701;SDS011;848;48.354;10.064;2023-07-30T08:09:28;2.90;;;2.07;;
1701;SDS011;848;48.354;10.064;2023-07-30T08:11:55;2.13;;;1.93;;
1701;SDS011;848;48.354;10.064;2023-07-30T08:16:59;2.00;;;1.67;;
1701;SDS011;848;48.354;10.064;2023-07-30T08:19:27;3.17;;;1.90;;
1701;SDS011;848;48.354;10.064;2023-07-30T08:21:53;2.20;;;2.00;;
1701;SDS011;848;48.354;10.064;2023-07-30T08:24:21;2.93;;;2.13;;
1701;SDS011;848;48.354;10.064;2023-07-30T08:26:48;2.10;;;1.90;;
1701;SDS011;848;48.354;10.064;2023-07-30T08:29:15;2.90;;;1.90;;
1701;SDS011;848;48.354;10.064;2023-07-30T08:31:42;1.90;;;1.70;;
1701;SDS011;848;48.354;10.064;2023-07-30T08:34:10;2.50;;;2.00;;
1701;SDS011;848;48.354;10.064;2023-07-30T08:36:37;3.03;;;1.70;;
1701;SDS011;848;48.354;10.064;2023-07-30T08:39:04;2.47;;;2.00;;
1701;SDS011;848;48.354;10.064;2023-07-30T08:41:31;2.30;;;1.90;;
1701;SDS011;848;48.354;10.064;2023-07-30T08:43:58;2.13;;;1.93;;
1701;SDS011;848;48.354;10.064;2023-07-30T08:46:25;2.60;;;2.00;;
1701;SDS011;848;48.354;10.064;2023-07-30T08:48:53;3.73;;;2.20;;
1701;SDS011;848;48.354;10.064;2023-07-30T08:51:23;2.03;;;1.70;;
1701;SDS011;848;48.354;10.064;2023-07-30T08:53:52;2.47;;;2.27;;
1701;SDS011;848;48.354;10.064;2023-07-30T08:56:20;2.07;;;1.77;;
1701;SDS011;848;48.354;10.064;2023-07-30T08:58:47;2.97;;;1.50;;
1701;SDS011;848;48.354;10.064;2023-07-30T09:01:18;4.30;;;1.93;;
1701;SDS011;848;48.354;10.064;2023-07-30T09:03:46;5.57;;;1.90;;
1701;SDS011;848;48.354;10.064;2023-07-30T09:06:16;2.37;;;2.17;;
1701;SDS011;848;48.354;10.064;2023-07-30T09:08:45;2.80;;;1.77;;
1701;SDS011;848;48.354;10.064;2023-07-30T09:11:12;2.30;;;1.80;;
1701;SDS011;848;48.354;10.064;2023-07-30T09:13:39;3.17;;;1.80;;
1701;SDS011;848;48.354;10.064;2023-07-30T09:16:09;2.53;;;2.03;;
1701;SDS011;848;48.354;10.064;2023-07-30T09:18:38;2.00;;;1.67;;
1701;SDS011;848;48.354;10.064;2023-07-30T09:21:06;3.87;;;1.60;;
1701;SDS011;848;48.354;10.064;2023-07-30T09:23:33;3.38;;;1.70;;
1701;SDS011;848;48.354;10.064;2023-07-30T09:26:07;3.00;;;1.87;;
1701;SDS011;848;48.354;10.064;2023-07-30T09:28:34;2.78;;;1.85;;
1701;SDS011;848;48.354;10.064;2023-07-30T09:31:01;2.42;;;1.85;;
1701;SDS011;848;48.354;10.064;2023-07-30T09:33:31;3.20;;;2.60;;
1701;SDS011;848;48.354;10.064;2023-07-30T09:36:01;2.47;;;2.13;;
1701;SDS011;848;48.354;10.064;2023-07-30T09:38:28;3.65;;;2.53;;
1701;SDS011;848;48.354;10.064;2023-07-30T09:41:00;2.35;;;2.15;;
1701;SDS011;848;48.354;10.064;2023-07-30T09:43:29;4.07;;;2.25;;
1701;SDS011;848;48.354;10.064;2023-07-30T09:46:00;3.03;;;2.10;;
1701;SDS011;848;48.354;10.064;2023-07-30T09:48:29;3.58;;;1.75;;
1701;SDS011;848;48.354;10.064;2023-07-30T09:50:58;1.98;;;1.77;;
1701;SDS011;848;48.354;10.064;2023-07-30T09:53:27;4.05;;;1.90;;
1701;SDS011;848;48.354;10.064;2023-07-30T09:55:59;2.20;;;1.80;;
1701;SDS011;848;48.354;10.064;2023-07-30T09:58:27;3.67;;;2.00;;
1701;SDS011;848;48.354;10.064;2023-07-30T10:00:55;3.97;;;1.95;;
1701;SDS011;848;48.354;10.064;2023-07-30T10:03:24;2.15;;;1.50;;
1701;SDS011;848;48.354;10.064;2023-07-30T10:05:52;1.70;;;1.47;;
1701;SDS011;848;48.354;10.064;2023-07-30T10:08:24;1.60;;;1.50;;
1701;SDS011;848;48.354;10.064;2023-07-30T10:10:55;4.45;;;1.63;;
1701;SDS011;848;48.354;10.064;2023-07-30T10:13:23;1.75;;;1.55;;
1701;SDS011;848;48.354;10.064;2023-07-30T10:15:50;2.08;;;1.60;;
1701;SDS011;848;48.354;10.064;2023-07-30T10:18:19;2.50;;;1.57;;
1701;SDS011;848;48.354;10.064;2023-07-30T10:20:52;3.50;;;2.10;;
1701;SDS011;848;48.354;10.064;2023-07-30T10:23:20;2.60;;;1.80;;
1701;SDS011;848;48.354;10.064;2023-07-30T10:25:47;2.00;;;1.60;;
1701;SDS011;848;48.354;10.064;2023-07-30T10:28:27;3.45;;;2.13;;
1701;SDS011;848;48.354;10.064;2023-07-30T10:30:58;3.63;;;2.50;;
1701;SDS011;848;48.354;10.064;2023-07-30T10:36:13;2.67;;;2.07;;
1701;SDS011;848;48.354;10.064;2023-07-30T10:38:42;6.00;;;2.10;;
1701;SDS011;848;48.354;10.064;2023-07-30T10:41:10;2.40;;;2.10;;
1701;SDS011;848;48.354;10.064;2023-07-30T10:43:40;2.10;;;1.70;;
1701;SDS011;848;48.354;10.064;2023-07-30T10:46:09;2.87;;;1.80;;
1701;SDS011;848;48.354;10.064;2023-07-30T10:48:38;2.60;;;1.63;;
1701;SDS011;848;48.354;10.064;2023-07-30T10:51:08;2.10;;;1.60;;
1701;SDS011;848;48.354;10.064;2023-07-30T10:53:36;1.80;;;1.70;;
1701;SDS011;848;48.354;10.064;2023-07-30T10:56:04;2.10;;;1.60;;
1701;SDS011;848;48.354;10.064;2023-07-30T10:58:32;2.90;;;1.60;;
1701;SDS011;848;48.354;10.064;2023-07-30T11:01:01;4.50;;;1.90;;
1701;SDS011;848;48.354;10.064;2023-07-30T11:03:29;2.53;;;1.83;;
1701;SDS011;848;48.354;10.064;2023-07-30T11:05:57;4.80;;;2.67;;
1701;SDS011;848;48.354;10.064;2023-07-30T11:08:35;2.97;;;1.67;;
1701;SDS011;848;48.354;10.064;2023-07-30T11:11:03;1.80;;;1.57;;
1701;SDS011;848;48.354;10.064;2023-07-30T11:13:34;2.87;;;1.60;;
1701;SDS011;848;48.354;10.064;2023-07-30T11:16:03;3.80;;;2.15;;
1701;SDS011;848;48.354;10.064;2023-07-30T11:18:31;3.90;;;1.90;;
1701;SDS011;848;48.354;10.064;2023-07-30T11:21:02;4.70;;;1.83;;
1701;SDS011;848;48.354;10.064;2023-07-30T11:23:30;2.38;;;1.75;;
1701;SDS011;848;48.354;10.064;2023-07-30T11:25:58;2.30;;;1.98;;
1701;SDS011;848;48.354;10.064;2023-07-30T11:28:27;2.50;;;2.17;;
1701;SDS011;848;48.354;10.064;2023-07-30T11:30:55;3.17;;;1.95;;
1701;SDS011;848;48.354;10.064;2023-07-30T11:33:26;2.00;;;1.70;;
1701;SDS011;848;48.354;10.064;2023-07-30T11:35:54;1.77;;;1.45;;
1701;SDS011;848;48.354;10.064;2023-07-30T11:38:21;2.45;;;1.90;;
1701;SDS011;848;48.354;10.064;2023-07-30T11:40:49;2.15;;;1.95;;
1701;SDS011;848;48.354;10.064;2023-07-30T11:43:18;3.53;;;1.85;;
1701;SDS011;848;48.354;10.064;2023-07-30T11:45:46;2.22;;;1.60;;
1701;SDS011;848;48.354;10.064;2023-07-30T11:48:13;3.78;;;1.80;;
1701;SDS011;848;48.354;10.064;2023-07-30T11:50:44;1.80;;;1.50;;
1701;SDS011;848;48.354;10.064;2023-07-30T11:53:12;2.10;;;1.50;;
1701;SDS011;848;48.354;10.064;2023-07-30T11:55:40;1.77;;;1.35;;
1701;SDS011;848;48.354;10.064;2023-07-30T11:58:08;2.40;;;1.73;;
1701;SDS011;848;48.354;10.064;2023-07-30T12:00:37;2.38;;;1.88;;
1701;SDS011;848;48.354;10.064;2023-07-30T12:03:06;1.52;;;1.17;;
1701;SDS011;848;48.354;10.064;2023-07-30T12:05:37;3.67;;;2.10;;
1701;SDS011;848;48.354;10.064;2023-07-30T12:08:12;2.58;;;1.60;;
1701;SDS011;848;48.354;10.064;2023-07-30T12:10:42;3.70;;;1.45;;
1701;SDS011;848;48.354;10.064;2023-07-30T12:13:15;12.65;;;1.90;;
1701;SDS011;848;48.354;10.064;2023-07-30T12:15:46;1.67;;;1.40;;
1701;SDS011;848;48.354;10.064;2023-07-30T12:18:17;2.88;;;1.55;;
1701;SDS011;848;48.354;10.064;2023-07-30T12:20:44;1.80;;;1.55;;
1701;SDS011;848;48.354;10.064;2023-07-30T12:23:11;4.15;;;1.90;;
1701;SDS011;848;48.354;10.064;2023-07-30T12:25:38;2.20;;;1.67;;
1701;SDS011;848;48.354;10.064;2023-07-30T12:28:05;2.10;;;1.60;;
1701;SDS011;848;48.354;10.064;2023-07-30T12:30:32;1.40;;;1.30;;
1701;SDS011;848;48.354;10.064;2023-07-30T12:33:02;1.63;;;1.40;;
1701;SDS011;848;48.354;10.064;2023-07-30T12:35:29;2.33;;;1.77;;
1701;SDS011;848;48.354;10.064;2023-07-30T12:37:56;5.43;;;1.88;;
1701;SDS011;848;48.354;10.064;2023-07-30T12:40:23;2.33;;;1.77;;
1701;SDS011;848;48.354;10.064;2023-07-30T12:42:50;4.38;;;1.95;;
1701;SDS011;848;48.354;10.064;2023-07-30T12:45:17;2.33;;;1.92;;
1701;SDS011;848;48.354;10.064;2023-07-30T12:47:44;2.80;;;2.00;;
1701;SDS011;848;48.354;10.064;2023-07-30T12:50:13;2.05;;;1.70;;
1701;SDS011;848;48.354;10.064;2023-07-30T12:52:40;3.47;;;2.25;;
1701;SDS011;848;48.354;10.064;2023-07-30T12:55:07;2.53;;;2.05;;
1701;SDS011;848;48.354;10.064;2023-07-30T12:57:34;5.18;;;2.30;;
1701;SDS011;848;48.354;10.064;2023-07-30T13:00:01;2.10;;;1.77;;
1701;SDS011;848;48.354;10.064;2023-07-30T13:02:29;2.50;;;2.25;;
1701;SDS011;848;48.354;10.064;2023-07-30T13:04:58;2.70;;;1.98;;
1701;SDS011;848;48.354;10.064;2023-07-30T13:07:27;2.10;;;1.90;;
1701;SDS011;848;48.354;10.064;2023-07-30T13:10:01;2.88;;;1.85;;
1701;SDS011;848;48.354;10.064;2023-07-30T13:12:33;2.25;;;2.05;;
1701;SDS011;848;48.354;10.064;2023-07-30T13:15:00;1.90;;;1.60;;
1701;SDS011;848;48.354;10.064;2023-07-30T13:17:27;1.80;;;1.70;;
1701;SDS011;848;48.354;10.064;2023-07-30T13:19:54;2.55;;;2.17;;
1701;SDS011;848;48.354;10.064;2023-07-30T13:22:21;5.18;;;2.28;;
1701;SDS011;848;48.354;10.064;2023-07-30T13:24:50;5.13;;;2.10;;
1701;SDS011;848;48.354;10.064;2023-07-30T13:27:17;2.83;;;2.10;;
1701;SDS011;848;48.354;10.064;2023-07-30T13:29:44;2.50;;;1.90;;
1701;SDS011;848;48.354;10.064;2023-07-30T13:32:11;3.78;;;2.05;;
1701;SDS011;848;48.354;10.064;2023-07-30T13:34:38;4.00;;;1.85;;
1701;SDS011;848;48.354;10.064;2023-07-30T13:37:05;2.58;;;2.15;;
1701;SDS011;848;48.354;10.064;2023-07-30T13:39:32;2.30;;;1.95;;
1701;SDS011;848;48.354;10.064;2023-07-30T13:42:00;2.20;;;2.00;;
1701;SDS011;848;48.354;10.064;2023-07-30T13:44:27;3.45;;;2.38;;
1701;SDS011;848;48.354;10.064;2023-07-30T13:46:54;3.60;;;2.03;;
1701;SDS011;848;48.354;10.064;2023-07-30T13:49:21;1.77;;;1.63;;
1701;SDS011;848;48.354;10.064;2023-07-30T13:51:48;2.50;;;2.28;;
1701;SDS011;848;48.354;10.064;2023-07-30T13:54:15;3.15;;;2.03;;
1701;SDS011;848;48.354;10.064;2023-07-30T13:56:42;6.60;;;2.72;;
1701;SDS011;848;48.354;10.064;2023-07-30T13:59:10;3.60;;;2.30;;
1701;SDS011;848;48.354;10.064;2023-07-30T14:01:37;5.73;;;1.90;;
1701;SDS011;848;48.354;10.064;2023-07-30T14:04:04;3.03;;;1.53;;
1701;SDS011;848;48.354;10.064;2023-07-30T14:06:31;2.13;;;1.93;;
1701;SDS011;848;48.354;10.064;2023-07-30T14:08:58;4.90;;;1.95;;
1701;SDS011;848;48.354;10.064;2023-07-30T14:11:25;5.35;;;2.20;;
1701;SDS011;848;48.354;10.064;2023-07-30T14:13:52;2.27;;;1.97;;
1701;SDS011;848;48.354;10.064;2023-07-30T14:16:20;2.30;;;1.90;;
1701;SDS011;848;48.354;10.064;2023-07-30T14:18:47;1.65;;;1.52;;
1701;SDS011;848;48.354;10.064;2023-07-30T14:21:14;2.40;;;1.90;;
1701;SDS011;848;48.354;10.064;2023-07-30T14:23:41;3.00;;;2.03;;
1701;SDS011;848;48.354;10.064;2023-07-30T14:26:08;2.57;;;2.20;;
1701;SDS011;848;48.354;10.064;2023-07-30T14:28:35;2.43;;;1.80;;
1701;SDS011;848;48.354;10.064;2023-07-30T14:31:02;2.50;;;2.28;;
1701;SDS011;848;48.354;10.064;2023-07-30T14:33:30;2.50;;;1.77;;
1701;SDS011;848;48.354;10.064;2023-07-30T14:35:57;2.97;;;2.15;;
1701;SDS011;848;48.354;10.064;2023-07-30T14:38:24;3.40;;;2.45;;
1701;SDS011;848;48.354;10.064;2023-07-30T14:40:51;2.60;;;1.93;;
1701;SDS011;848;48.354;10.064;2023-07-30T14:43:18;2.50;;;2.17;;
1701;SDS011;848;48.354;10.064;2023-07-30T14:45:45;3.13;;;1.98;;
1701;SDS011;848;48.354;10.064;2023-07-30T14:48:12;4.23;;;1.97;;
1701;SDS011;848;48.354;10.064;2023-07-30T14:50:40;4.23;;;2.73;;
1701;SDS011;848;48.354;10.064;2023-07-30T14:53:07;5.10;;;2.03;;
1701;SDS011;848;48.354;10.064;2023-07-30T14:55:34;2.63;;;2.40;;
1701;SDS011;848;48.354;10.064;2023-07-30T14:58:01;3.40;;;2.35;;
1701;SDS011;848;48.354;10.064;2023-07-30T15:00:28;2.40;;;1.90;;
1701;SDS011;848;48.354;10.064;2023-07-30T15:02:55;3.60;;;2.00;;
1701;SDS011;848;48.354;10.064;2023-07-30T15:05:21;3.70;;;2.57;;
1701;SDS011;848;48.354;10.064;2023-07-30T15:07:49;3.73;;;2.37;;
1701;SDS011;848;48.354;10.064;2023-07-30T15:10:16;4.20;;;2.40;;
1701;SDS011;848;48.354;10.064;2023-07-30T15:12:43;2.60;;;2.20;;
1701;SDS011;848;48.354;10.064;2023-07-30T15:15:10;3.93;;;2.07;;
1701;SDS011;848;48.354;10.064;2023-07-30T15:17:37;3.85;;;2.40;;
1701;SDS011;848;48.354;10.064;2023-07-30T15:20:04;2.97;;;2.30;;
1701;SDS011;848;48.354;10.064;2023-07-30T15:22:31;2.10;;;1.90;;